sensor_id;sensor_type;location;lat;lon;timestamp;P1;durP1;ratioP1;P2;durP2;ratioP2
2011;SDS011;1009;51.436;6.972;2022-10-18T00:00:08;8.80;;;3.80;;
2011;SDS011;1009;51.436;6.972;2022-10-18T00:02:36;12.03;;;3.53;;
2011;SDS011;1009;51.436;6.972;2022-10-18T00:05:03;15.10;;;4.33;;
2011;SDS011;1009;51.436;6.972;2022-10-18T00:07:30;9.43;;;3.80;;
2011;SDS011;1009;51.436;6.972;2022-10-18T00:09:57;7.10;;;3.10;;
2011;SDS011;1009;51.436;6.972;2022-10-18T00:12:23;6.17;;;3.57;;
2011;SDS011;1009;51.436;6.972;2022-10-18T00:14:51;3.83;;;3.03;;
2011;SDS011;1009;51.436;6.972;2022-10-18T00:17:18;4.40;;;3.03;;
2011;SDS011;1009;51.436;6.972;2022-10-18T00:19:45;8.07;;;3.50;;
2011;SDS011;1009;51.436;6.972;2022-10-18T00:22:14;5.77;;;3.27;;
2011;SDS011;1009;51.436;6.972;2022-10-18T00:24:41;5.63;;;2.70;;
2011;SDS011;1009;51.436;6.972;2022-10-18T00:27:07;4.20;;;2.57;;
2011;SDS011;1009;51.436;6.972;2022-10-18T00:29:34;5.20;;;2.60;;
2011;SDS011;1009;51.436;6.972;2022-10-18T00:32:02;5.33;;;2.93;;
2011;SDS011;1009;51.436;6.972;2022-10-18T00:34:29;3.13;;;2.50;;
2011;SDS011;1009;51.436;6.972;2022-10-18T00:36:56;3.47;;;2.73;;
2011;SDS011;1009;51.436;6.972;2022-10-18T00:39:23;5.00;;;2.20;;
2011;SDS011;1009;51.436;6.972;2022-10-18T00:41:50;6.90;;;2.77;;
2011;SDS011;1009;51.436;6.972;2022-10-18T00:47:22;5.60;;;2.70;;
2011;SDS011;1009;51.436;6.972;2022-10-18T00:49:50;4.00;;;2.37;;
2011;SDS011;1009;51.436;6.972;2022-10-18T00:52:20;3.80;;;3.13;;
2011;SDS011;1009;51.436;6.972;2022-10-18T00:54:51;10.40;;;3.40;;
2011;SDS011;1009;51.436;6.972;2022-10-18T00:57:19;8.57;;;3.53;;
2011;SDS011;1009;51.436;6.972;2022-10-18T00:59:46;2.93;;;2.33;;
2011;SDS011;1009;51.436;6.972;2022-10-18T01:02:13;5.50;;;2.77;;
2011;SDS011;1009;51.436;6.972;2022-10-18T01:04:43;3.83;;;2.17;;
2011;SDS011;1009;51.436;6.972;2022-10-18T01:07:13;9.00;;;3.70;;
2011;SDS011;1009;51.436;6.972;2022-10-18T01:09:51;4.20;;;2.97;;
2011;SDS011;1009;51.436;6.972;2022-10-18T01:12:30;5.30;;;2.60;;
2011;SDS011;1009;51.436;6.972;2022-10-18T01:15:04;12.90;;;3.40;;
2011;SDS011;1009;51.436;6.972;2022-10-18T01:17:37;7.13;;;3.17;;
2011;SDS011;1009;51.436;6.972;2022-10-18T01:23:04;9.33;;;2.70;;
2011;SDS011;1009;51.436;6.972;2022-10-18T01:25:36;7.00;;;2.70;;
2011;SDS011;1009;51.436;6.972;2022-10-18T01:28:19;13.07;;;3.10;;
2011;SDS011;1009;51.436;6.972;2022-10-18T01:30:58;11.60;;;3.10;;
2011;SDS011;1009;51.436;6.972;2022-10-18T01:33:28;12.30;;;3.93;;
2011;SDS011;1009;51.436;6.972;2022-10-18T01:36:00;5.67;;;3.23;;
2011;SDS011;1009;51.436;6.972;2022-10-18T01:38:31;10.90;;;4.00;;
2011;SDS011;1009;51.436;6.972;2022-10-18T01:40:59;7.67;;;2.97;;
2011;SDS011;1009;51.436;6.972;2022-10-18T01:43:28;8.53;;;2.97;;
2011;SDS011;1009;51.436;6.972;2022-10-18T01:45:58;7.10;;;3.10;;
2011;SDS011;1009;51.436;6.972;2022-10-18T01:48:26;5.93;;;3.17;;
2011;SDS011;1009;51.436;6.972;2022-10-18T01:50:54;10.70;;;3.67;;
2011;SDS011;1009;51.436;6.972;2022-10-18T01:53:21;6.77;;;3.47;;
2011;SDS011;1009;51.436;6.972;2022-10-18T01:58:41;13.63;;;4.40;;
2011;SDS011;1009;51.436;6.972;2022-10-18T02:01:17;11.73;;;3.60;;
2011;SDS011;1009;51.436;6.972;2022-10-18T02:03:46;11.77;;;3.23;;
2011;SDS011;1009;51.436;6.972;2022-10-18T02:06:17;6.40;;;2.83;;
2011;SDS011;1009;51.436;6.972;2022-10-18T02:08:50;10.60;;;3.13;;
2011;SDS011;1009;51.436;6.972;2022-10-18T02:11:22;10.23;;;3.53;;
2011;SDS011;1009;51.436;6.972;2022-10-18T02:13:52;4.63;;;3.70;;
2011;SDS011;1009;51.436;6.972;2022-10-18T02:16:24;9.50;;;3.70;;
2011;SDS011;1009;51.436;6.972;2022-10-18T02:18:57;7.77;;;3.87;;
2011;SDS011;1009;51.436;6.972;2022-10-18T02:21:27;7.17;;;3.50;;
2011;SDS011;1009;51.436;6.972;2022-10-18T02:23:55;7.70;;;3.90;;
2011;SDS011;1009;51.436;6.972;2022-10-18T02:26:24;7.80;;;3.90;;
2011;SDS011;1009;51.436;6.972;2022-10-18T02:28:51;5.03;;;3.90;;
2011;SDS011;1009;51.436;6.972;2022-10-18T02:31:18;4.60;;;3.30;;
2011;SDS011;1009;51.436;6.972;2022-10-18T02:33:54;7.63;;;4.00;;
2011;SDS011;1009;51.436;6.972;2022-10-18T02:36:24;20.10;;;4.80;;
2011;SDS011;1009;51.436;6.972;2022-10-18T02:38:55;13.97;;;4.40;;
2011;SDS011;1009;51.436;6.972;2022-10-18T02:41:25;11.33;;;4.70;;
2011;SDS011;1009;51.436;6.972;2022-10-18T02:43:53;14.00;;;4.17;;
2011;SDS011;1009;51.436;6.972;2022-10-18T02:46:19;13.60;;;4.20;;
2011;SDS011;1009;51.436;6.972;2022-10-18T02:48:46;9.83;;;4.77;;
2011;SDS011;1009;51.436;6.972;2022-10-18T02:51:15;7.97;;;3.90;;
2011;SDS011;1009;51.436;6.972;2022-10-18T02:53:42;8.97;;;4.37;;
2011;SDS011;1009;51.436;6.972;2022-10-18T02:56:08;6.10;;;3.97;;
2011;SDS011;1009;51.436;6.972;2022-10-18T02:58:35;6.40;;;4.03;;
2011;SDS011;1009;51.436;6.972;2022-10-18T03:01:02;13.20;;;4.40;;
2011;SDS011;1009;51.436;6.972;2022-10-18T03:03:29;32.43;;;4.43;;
2011;SDS011;1009;51.436;6.972;2022-10-18T03:05:55;20.30;;;4.00;;
2011;SDS011;1009;51.436;6.972;2022-10-18T03:08:24;7.30;;;4.23;;
2011;SDS011;1009;51.436;6.972;2022-10-18T03:10:50;9.50;;;4.90;;
2011;SDS011;1009;51.436;6.972;2022-10-18T03:13:17;9.93;;;4.23;;
2011;SDS011;1009;51.436;6.972;2022-10-18T03:15:45;13.43;;;5.37;;
2011;SDS011;1009;51.436;6.972;2022-10-18T03:18:12;11.53;;;4.90;;
2011;SDS011;1009;51.436;6.972;2022-10-18T03:20:38;18.67;;;4.50;;
2011;SDS011;1009;51.436;6.972;2022-10-18T03:23:05;8.80;;;4.17;;
2011;SDS011;1009;51.436;6.972;2022-10-18T03:25:33;4.83;;;3.57;;
2011;SDS011;1009;51.436;6.972;2022-10-18T03:28:00;8.87;;;5.17;;
2011;SDS011;1009;51.436;6.972;2022-10-18T03:30:27;5.93;;;4.50;;
2011;SDS011;1009;51.436;6.972;2022-10-18T03:32:54;7.77;;;3.93;;
2011;SDS011;1009;51.436;6.972;2022-10-18T03:35:20;4.83;;;4.00;;
2011;SDS011;1009;51.436;6.972;2022-10-18T03:37:47;8.47;;;5.07;;
2011;SDS011;1009;51.436;6.972;2022-10-18T03:40:14;7.27;;;4.43;;
2011;SDS011;1009;51.436;6.972;2022-10-18T03:42:42;6.60;;;4.30;;
2011;SDS011;1009;51.436;6.972;2022-10-18T03:45:09;7.67;;;4.97;;
2011;SDS011;1009;51.436;6.972;2022-10-18T03:47:36;9.87;;;4.17;;
2011;SDS011;1009;51.436;6.972;2022-10-18T03:50:03;9.10;;;5.10;;
2011;SDS011;1009;51.436;6.972;2022-10-18T03:52:30;12.80;;;5.07;;
2011;SDS011;1009;51.436;6.972;2022-10-18T03:54:57;8.97;;;4.90;;
2011;SDS011;1009;51.436;6.972;2022-10-18T03:57:24;7.90;;;5.50;;
2011;SDS011;1009;51.436;6.972;2022-10-18T03:59:52;8.70;;;6.53;;
2011;SDS011;1009;51.436;6.972;2022-10-18T04:02:19;8.97;;;6.90;;
2011;SDS011;1009;51.436;6.972;2022-10-18T04:04:46;10.63;;;7.00;;
2011;SDS011;1009;51.436;6.972;2022-10-18T04:07:13;11.30;;;6.70;;
2011;SDS011;1009;51.436;6.972;2022-10-18T04:09:40;11.77;;;8.73;;
2011;SDS011;1009;51.436;6.972;2022-10-18T04:12:07;16.90;;;9.13;;
2011;SDS011;1009;51.436;6.972;2022-10-18T04:14:33;13.03;;;7.07;;
2011;SDS011;1009;51.436;6.972;2022-10-18T04:17:01;15.13;;;5.30;;
2011;SDS011;1009;51.436;6.972;2022-10-18T04:19:28;8.87;;;4.40;;
2011;SDS011;1009;51.436;6.972;2022-10-18T04:21:55;9.63;;;4.97;;
2011;SDS011;1009;51.436;6.972;2022-10-18T04:24:22;16.73;;;9.20;;
2011;SDS011;1009;51.436;6.972;2022-10-18T04:26:49;14.03;;;7.13;;
2011;SDS011;1009;51.436;6.972;2022-10-18T04:29:16;15.93;;;7.30;;
2011;SDS011;1009;51.436;6.972;2022-10-18T04:31:42;16.90;;;6.10;;
2011;SDS011;1009;51.436;6.972;2022-10-18T04:34:10;15.53;;;6.30;;
2011;SDS011;1009;51.436;6.972;2022-10-18T04:36:37;15.57;;;7.87;;
2011;SDS011;1009;51.436;6.972;2022-10-18T04:39:04;17.13;;;9.83;;
2011;SDS011;1009;51.436;6.972;2022-10-18T04:41:31;21.93;;;11.27;;
2011;SDS011;1009;51.436;6.972;2022-10-18T04:43:57;17.97;;;11.13;;
2011;SDS011;1009;51.436;6.972;2022-10-18T04:46:24;19.27;;;12.70;;
2011;SDS011;1009;51.436;6.972;2022-10-18T04:48:51;21.50;;;11.70;;
2011;SDS011;1009;51.436;6.972;2022-10-18T04:51:19;16.20;;;9.77;;
2011;SDS011;1009;51.436;6.972;2022-10-18T04:53:46;20.80;;;11.17;;
2011;SDS011;1009;51.436;6.972;2022-10-18T04:56:13;18.20;;;7.67;;
2011;SDS011;1009;51.436;6.972;2022-10-18T04:58:39;20.20;;;11.80;;
2011;SDS011;1009;51.436;6.972;2022-10-18T05:01:06;18.53;;;11.63;;
2011;SDS011;1009;51.436;6.972;2022-10-18T05:03:33;30.20;;;13.20;;
2011;SDS011;1009;51.436;6.972;2022-10-18T05:06:00;23.03;;;12.17;;
2011;SDS011;1009;51.436;6.972;2022-10-18T05:08:28;19.23;;;10.27;;
2011;SDS011;1009;51.436;6.972;2022-10-18T05:10:56;17.67;;;9.50;;
2011;SDS011;1009;51.436;6.972;2022-10-18T05:13:22;24.23;;;11.47;;
2011;SDS011;1009;51.436;6.972;2022-10-18T05:15:49;26.70;;;12.50;;
2011;SDS011;1009;51.436;6.972;2022-10-18T05:18:16;18.07;;;12.70;;
2011;SDS011;1009;51.436;6.972;2022-10-18T05:20:44;30.77;;;9.70;;
2011;SDS011;1009;51.436;6.972;2022-10-18T05:23:11;18.07;;;5.87;;
2011;SDS011;1009;51.436;6.972;2022-10-18T05:25:39;29.80;;;7.27;;
2011;SDS011;1009;51.436;6.972;2022-10-18T05:28:08;18.63;;;9.53;;
2011;SDS011;1009;51.436;6.972;2022-10-18T05:30:36;11.73;;;7.57;;
2011;SDS011;1009;51.436;6.972;2022-10-18T05:33:03;16.17;;;7.90;;
2011;SDS011;1009;51.436;6.972;2022-10-18T05:35:29;16.77;;;10.20;;
2011;SDS011;1009;51.436;6.972;2022-10-18T05:37:56;20.77;;;12.90;;
2011;SDS011;1009;51.436;6.972;2022-10-18T05:40:23;21.03;;;10.60;;
2011;SDS011;1009;51.436;6.972;2022-10-18T05:42:51;19.57;;;8.60;;
2011;SDS011;1009;51.436;6.972;2022-10-18T05:45:18;25.97;;;14.27;;
2011;SDS011;1009;51.436;6.972;2022-10-18T05:47:45;20.40;;;11.83;;
2011;SDS011;1009;51.436;6.972;2022-10-18T05:50:12;21.80;;;13.20;;
2011;SDS011;1009;51.436;6.972;2022-10-18T05:52:38;31.67;;;15.30;;
2011;SDS011;1009;51.436;6.972;2022-10-18T05:55:06;24.50;;;14.13;;
2011;SDS011;1009;51.436;6.972;2022-10-18T05:57:33;24.37;;;13.17;;
2011;SDS011;1009;51.436;6.972;2022-10-18T06:00:01;21.47;;;12.60;;
2011;SDS011;1009;51.436;6.972;2022-10-18T06:02:29;26.77;;;15.40;;
2011;SDS011;1009;51.436;6.972;2022-10-18T06:04:55;26.50;;;15.07;;
2011;SDS011;1009;51.436;6.972;2022-10-18T06:07:22;25.80;;;14.90;;
2011;SDS011;1009;51.436;6.972;2022-10-18T06:09:49;25.40;;;15.83;;
2011;SDS011;1009;51.436;6.972;2022-10-18T06:12:16;32.43;;;14.73;;
2011;SDS011;1009;51.436;6.972;2022-10-18T06:14:42;27.63;;;13.40;;
2011;SDS011;1009;51.436;6.972;2022-10-18T06:17:10;21.20;;;13.77;;
2011;SDS011;1009;51.436;6.972;2022-10-18T06:19:37;34.60;;;14.90;;
2011;SDS011;1009;51.436;6.972;2022-10-18T06:22:04;24.30;;;13.90;;
2011;SDS011;1009;51.436;6.972;2022-10-18T06:24:31;23.10;;;12.57;;
2011;SDS011;1009;51.436;6.972;2022-10-18T06:26:57;21.23;;;11.90;;
2011;SDS011;1009;51.436;6.972;2022-10-18T06:29:24;24.57;;;14.27;;
2011;SDS011;1009;51.436;6.972;2022-10-18T06:31:51;27.33;;;14.50;;
2011;SDS011;1009;51.436;6.972;2022-10-18T06:34:19;24.80;;;14.60;;
2011;SDS011;1009;51.436;6.972;2022-10-18T06:36:45;26.27;;;12.03;;
2011;SDS011;1009;51.436;6.972;2022-10-18T06:39:12;22.53;;;12.37;;
2011;SDS011;1009;51.436;6.972;2022-10-18T06:41:39;27.97;;;14.03;;
2011;SDS011;1009;51.436;6.972;2022-10-18T06:44:06;33.17;;;18.53;;
2011;SDS011;1009;51.436;6.972;2022-10-18T06:46:38;35.33;;;18.90;;
2011;SDS011;1009;51.436;6.972;2022-10-18T06:49:04;26.30;;;15.47;;
2011;SDS011;1009;51.436;6.972;2022-10-18T06:51:33;30.30;;;17.07;;
2011;SDS011;1009;51.436;6.972;2022-10-18T06:53:59;29.30;;;16.97;;
2011;SDS011;1009;51.436;6.972;2022-10-18T06:56:26;27.73;;;17.83;;
2011;SDS011;1009;51.436;6.972;2022-10-18T06:58:53;32.00;;;17.10;;
2011;SDS011;1009;51.436;6.972;2022-10-18T07:01:20;35.10;;;19.33;;
2011;SDS011;1009;51.436;6.972;2022-10-18T07:03:47;41.60;;;20.77;;
2011;SDS011;1009;51.436;6.972;2022-10-18T07:06:16;34.50;;;16.07;;
2011;SDS011;1009;51.436;6.972;2022-10-18T07:08:45;28.27;;;15.17;;
2011;SDS011;1009;51.436;6.972;2022-10-18T07:11:13;24.07;;;12.00;;
2011;SDS011;1009;51.436;6.972;2022-10-18T07:13:41;29.50;;;13.70;;
2011;SDS011;1009;51.436;6.972;2022-10-18T07:16:10;38.03;;;18.80;;
2011;SDS011;1009;51.436;6.972;2022-10-18T07:18:39;35.30;;;19.40;;
2011;SDS011;1009;51.436;6.972;2022-10-18T07:21:07;36.43;;;18.80;;
2011;SDS011;1009;51.436;6.972;2022-10-18T07:23:35;36.47;;;20.10;;
2011;SDS011;1009;51.436;6.972;2022-10-18T07:26:09;36.13;;;17.23;;
2011;SDS011;1009;51.436;6.972;2022-10-18T07:28:38;32.90;;;16.03;;
2011;SDS011;1009;51.436;6.972;2022-10-18T07:31:05;30.63;;;16.43;;
2011;SDS011;1009;51.436;6.972;2022-10-18T07:33:32;41.73;;;22.60;;
2011;SDS011;1009;51.436;6.972;2022-10-18T07:35:59;36.60;;;17.50;;
2011;SDS011;1009;51.436;6.972;2022-10-18T07:38:32;34.03;;;18.20;;
2011;SDS011;1009;51.436;6.972;2022-10-18T07:41:02;36.03;;;18.37;;
2011;SDS011;1009;51.436;6.972;2022-10-18T07:43:32;37.87;;;19.03;;
2011;SDS011;1009;51.436;6.972;2022-10-18T07:45:59;44.50;;;21.00;;
2011;SDS011;1009;51.436;6.972;2022-10-18T07:48:27;40.30;;;22.60;;
2011;SDS011;1009;51.436;6.972;2022-10-18T07:50:56;45.13;;;20.87;;
2011;SDS011;1009;51.436;6.972;2022-10-18T07:53:23;38.07;;;19.57;;
2011;SDS011;1009;51.436;6.972;2022-10-18T07:55:50;39.20;;;18.60;;
2011;SDS011;1009;51.436;6.972;2022-10-18T07:58:18;31.17;;;17.70;;
2011;SDS011;1009;51.436;6.972;2022-10-18T08:00:45;31.87;;;18.20;;
2011;SDS011;1009;51.436;6.972;2022-10-18T08:03:12;37.37;;;20.83;;
2011;SDS011;1009;51.436;6.972;2022-10-18T08:05:38;52.50;;;22.03;;
2011;SDS011;1009;51.436;6.972;2022-10-18T08:08:05;46.63;;;23.10;;
2011;SDS011;1009;51.436;6.972;2022-10-18T08:10:33;46.87;;;24.40;;
2011;SDS011;1009;51.436;6.972;2022-10-18T08:13:00;98.00;;;33.00;;
2011;SDS011;1009;51.436;6.972;2022-10-18T08:15:28;79.83;;;32.87;;
2011;SDS011;1009;51.436;6.972;2022-10-18T08:17:55;89.97;;;35.60;;
2011;SDS011;1009;51.436;6.972;2022-10-18T08:20:21;75.80;;;32.10;;
2011;SDS011;1009;51.436;6.972;2022-10-18T08:22:48;70.93;;;31.17;;
2011;SDS011;1009;51.436;6.972;2022-10-18T08:25:15;81.20;;;33.63;;
2011;SDS011;1009;51.436;6.972;2022-10-18T08:27:42;74.70;;;32.57;;
2011;SDS011;1009;51.436;6.972;2022-10-18T08:30:09;65.40;;;31.80;;
2011;SDS011;1009;51.436;6.972;2022-10-18T08:32:37;70.40;;;32.33;;
2011;SDS011;1009;51.436;6.972;2022-10-18T08:35:04;70.17;;;31.00;;
2011;SDS011;1009;51.436;6.972;2022-10-18T08:37:32;65.90;;;32.70;;
2011;SDS011;1009;51.436;6.972;2022-10-18T08:40:05;79.03;;;35.20;;
2011;SDS011;1009;51.436;6.972;2022-10-18T08:42:42;75.90;;;33.00;;
2011;SDS011;1009;51.436;6.972;2022-10-18T08:45:22;94.13;;;35.93;;
2011;SDS011;1009;51.436;6.972;2022-10-18T08:47:50;108.97;;;37.73;;
2011;SDS011;1009;51.436;6.972;2022-10-18T08:50:22;121.43;;;39.00;;
2011;SDS011;1009;51.436;6.972;2022-10-18T08:52:52;81.83;;;38.40;;
2011;SDS011;1009;51.436;6.972;2022-10-18T08:55:25;106.00;;;39.10;;
2011;SDS011;1009;51.436;6.972;2022-10-18T08:58:00;89.53;;;40.33;;
2011;SDS011;1009;51.436;6.972;2022-10-18T09:00:28;83.13;;;39.00;;
2011;SDS011;1009;51.436;6.972;2022-10-18T09:03:06;99.30;;;42.60;;
2011;SDS011;1009;51.436;6.972;2022-10-18T09:05:43;85.43;;;38.57;;
2011;SDS011;1009;51.436;6.972;2022-10-18T09:08:21;97.60;;;44.77;;
2011;SDS011;1009;51.436;6.972;2022-10-18T09:11:06;115.80;;;45.90;;
2011;SDS011;1009;51.436;6.972;2022-10-18T09:13:54;134.47;;;44.80;;
2011;SDS011;1009;51.436;6.972;2022-10-18T09:16:43;94.17;;;41.47;;
2011;SDS011;1009;51.436;6.972;2022-10-18T09:19:19;98.83;;;43.80;;
2011;SDS011;1009;51.436;6.972;2022-10-18T09:21:52;97.50;;;42.80;;
2011;SDS011;1009;51.436;6.972;2022-10-18T09:24:21;95.97;;;42.60;;
2011;SDS011;1009;51.436;6.972;2022-10-18T09:26:56;115.17;;;44.53;;
2011;SDS011;1009;51.436;6.972;2022-10-18T09:29:29;127.20;;;44.97;;
2011;SDS011;1009;51.436;6.972;2022-10-18T09:32:09;92.90;;;39.97;;
2011;SDS011;1009;51.436;6.972;2022-10-18T09:34:48;116.13;;;42.53;;
2011;SDS011;1009;51.436;6.972;2022-10-18T09:37:18;105.77;;;40.07;;
2011;SDS011;1009;51.436;6.972;2022-10-18T09:39:47;83.90;;;38.50;;
2011;SDS011;1009;51.436;6.972;2022-10-18T09:42:17;96.20;;;40.67;;
2011;SDS011;1009;51.436;6.972;2022-10-18T09:44:52;88.03;;;39.60;;
2011;SDS011;1009;51.436;6.972;2022-10-18T09:47:21;101.57;;;40.33;;
2011;SDS011;1009;51.436;6.972;2022-10-18T09:49:53;98.67;;;41.10;;
2011;SDS011;1009;51.436;6.972;2022-10-18T09:52:25;95.93;;;40.13;;
2011;SDS011;1009;51.436;6.972;2022-10-18T09:54:54;96.03;;;40.10;;
2011;SDS011;1009;51.436;6.972;2022-10-18T09:57:25;92.53;;;40.07;;
2011;SDS011;1009;51.436;6.972;2022-10-18T09:59:57;99.17;;;41.13;;
2011;SDS011;1009;51.436;6.972;2022-10-18T10:02:25;85.63;;;39.10;;
2011;SDS011;1009;51.436;6.972;2022-10-18T10:04:53;82.67;;;38.03;;
2011;SDS011;1009;51.436;6.972;2022-10-18T10:07:23;68.60;;;36.07;;
2011;SDS011;1009;51.436;6.972;2022-10-18T10:09:54;86.43;;;38.40;;
2011;SDS011;1009;51.436;6.972;2022-10-18T10:12:26;82.97;;;37.10;;
2011;SDS011;1009;51.436;6.972;2022-10-18T10:15:05;74.90;;;35.60;;
2011;SDS011;1009;51.436;6.972;2022-10-18T10:17:33;72.30;;;34.77;;
2011;SDS011;1009;51.436;6.972;2022-10-18T10:20:03;62.13;;;33.60;;
2011;SDS011;1009;51.436;6.972;2022-10-18T10:22:40;60.20;;;31.00;;
2011;SDS011;1009;51.436;6.972;2022-10-18T10:25:10;64.47;;;30.57;;
2011;SDS011;1009;51.436;6.972;2022-10-18T10:27:46;47.57;;;28.60;;
2011;SDS011;1009;51.436;6.972;2022-10-18T10:30:20;53.17;;;28.30;;
2011;SDS011;1009;51.436;6.972;2022-10-18T10:32:50;42.03;;;24.73;;
2011;SDS011;1009;51.436;6.972;2022-10-18T10:35:23;47.93;;;25.83;;
2011;SDS011;1009;51.436;6.972;2022-10-18T10:37:54;37.73;;;23.00;;
2011;SDS011;1009;51.436;6.972;2022-10-18T10:40:21;34.97;;;22.20;;
2011;SDS011;1009;51.436;6.972;2022-10-18T10:43:02;33.23;;;20.77;;
2011;SDS011;1009;51.436;6.972;2022-10-18T10:45:33;31.87;;;20.20;;
2011;SDS011;1009;51.436;6.972;2022-10-18T10:48:12;30.43;;;21.70;;
2011;SDS011;1009;51.436;6.972;2022-10-18T10:50:55;33.10;;;21.93;;
2011;SDS011;1009;51.436;6.972;2022-10-18T10:53:41;38.60;;;21.73;;
2011;SDS011;1009;51.436;6.972;2022-10-18T10:56:15;34.70;;;22.47;;
2011;SDS011;1009;51.436;6.972;2022-10-18T10:58:45;29.90;;;19.57;;
2011;SDS011;1009;51.436;6.972;2022-10-18T11:01:17;22.33;;;13.70;;
2011;SDS011;1009;51.436;6.972;2022-10-18T11:03:45;33.67;;;22.00;;
2011;SDS011;1009;51.436;6.972;2022-10-18T11:06:24;33.60;;;21.90;;
2011;SDS011;1009;51.436;6.972;2022-10-18T11:08:58;33.53;;;20.83;;
2011;SDS011;1009;51.436;6.972;2022-10-18T11:11:29;35.60;;;22.60;;
2011;SDS011;1009;51.436;6.972;2022-10-18T11:14:01;36.87;;;22.00;;
2011;SDS011;1009;51.436;6.972;2022-10-18T11:16:35;36.80;;;24.57;;
2011;SDS011;1009;51.436;6.972;2022-10-18T11:19:08;33.90;;;22.07;;
2011;SDS011;1009;51.436;6.972;2022-10-18T11:21:45;32.77;;;19.57;;
2011;SDS011;1009;51.436;6.972;2022-10-18T11:24:13;28.97;;;19.80;;
2011;SDS011;1009;51.436;6.972;2022-10-18T11:26:43;32.30;;;22.10;;
2011;SDS011;1009;51.436;6.972;2022-10-18T11:29:29;40.40;;;22.33;;
2011;SDS011;1009;51.436;6.972;2022-10-18T11:32:10;41.77;;;25.80;;
2011;SDS011;1009;51.436;6.972;2022-10-18T11:34:48;36.87;;;24.67;;
2011;SDS011;1009;51.436;6.972;2022-10-18T11:37:28;40.20;;;25.37;;
2011;SDS011;1009;51.436;6.972;2022-10-18T11:40:09;42.30;;;27.07;;
2011;SDS011;1009;51.436;6.972;2022-10-18T11:42:53;39.13;;;25.10;;
2011;SDS011;1009;51.436;6.972;2022-10-18T11:45:27;37.60;;;25.43;;
2011;SDS011;1009;51.436;6.972;2022-10-18T11:48:03;39.73;;;26.27;;
2011;SDS011;1009;51.436;6.972;2022-10-18T11:50:40;32.83;;;23.40;;
2011;SDS011;1009;51.436;6.972;2022-10-18T11:53:16;29.20;;;19.57;;
2011;SDS011;1009;51.436;6.972;2022-10-18T11:55:54;31.77;;;23.90;;
2011;SDS011;1009;51.436;6.972;2022-10-18T11:58:33;29.60;;;19.83;;
2011;SDS011;1009;51.436;6.972;2022-10-18T12:01:11;26.93;;;18.10;;
2011;SDS011;1009;51.436;6.972;2022-10-18T12:03:52;21.27;;;14.63;;
2011;SDS011;1009;51.436;6.972;2022-10-18T12:06:28;25.40;;;14.50;;
2011;SDS011;1009;51.436;6.972;2022-10-18T12:09:03;29.30;;;15.33;;
2011;SDS011;1009;51.436;6.972;2022-10-18T12:11:37;22.50;;;15.10;;
2011;SDS011;1009;51.436;6.972;2022-10-18T12:14:14;21.67;;;14.60;;
2011;SDS011;1009;51.436;6.972;2022-10-18T12:16:47;23.13;;;15.57;;
2011;SDS011;1009;51.436;6.972;2022-10-18T12:19:17;20.90;;;14.20;;
2011;SDS011;1009;51.436;6.972;2022-10-18T12:21:47;23.93;;;16.40;;
2011;SDS011;1009;51.436;6.972;2022-10-18T12:24:16;25.70;;;16.73;;
2011;SDS011;1009;51.436;6.972;2022-10-18T12:26:48;23.30;;;16.17;;
2011;SDS011;1009;51.436;6.972;2022-10-18T12:29:19;27.80;;;16.90;;
2011;SDS011;1009;51.436;6.972;2022-10-18T12:31:50;35.73;;;19.27;;
2011;SDS011;1009;51.436;6.972;2022-10-18T12:34:27;32.90;;;20.30;;
2011;SDS011;1009;51.436;6.972;2022-10-18T12:39:49;32.13;;;21.93;;
2011;SDS011;1009;51.436;6.972;2022-10-18T12:42:19;28.10;;;20.30;;
2011;SDS011;1009;51.436;6.972;2022-10-18T12:44:49;27.03;;;18.93;;
2011;SDS011;1009;51.436;6.972;2022-10-18T12:47:26;30.40;;;18.30;;
2011;SDS011;1009;51.436;6.972;2022-10-18T12:49:55;25.57;;;19.00;;
2011;SDS011;1009;51.436;6.972;2022-10-18T12:52:24;25.50;;;18.97;;
2011;SDS011;1009;51.436;6.972;2022-10-18T12:55:05;26.53;;;19.20;;
2011;SDS011;1009;51.436;6.972;2022-10-18T13:00:55;23.90;;;18.37;;
2011;SDS011;1009;51.436;6.972;2022-10-18T13:03:38;31.10;;;20.60;;
2011;SDS011;1009;51.436;6.972;2022-10-18T13:06:23;29.33;;;20.20;;
2011;SDS011;1009;51.436;6.972;2022-10-18T13:09:14;24.67;;;17.27;;
2011;SDS011;1009;51.436;6.972;2022-10-18T13:11:46;28.03;;;16.40;;
2011;SDS011;1009;51.436;6.972;2022-10-18T13:17:00;20.83;;;12.60;;
2011;SDS011;1009;51.436;6.972;2022-10-18T13:19:30;21.57;;;11.67;;
2011;SDS011;1009;51.436;6.972;2022-10-18T13:22:09;19.40;;;11.10;;
2011;SDS011;1009;51.436;6.972;2022-10-18T13:24:39;23.20;;;13.07;;
2011;SDS011;1009;51.436;6.972;2022-10-18T13:27:14;26.27;;;12.30;;
2011;SDS011;1009;51.436;6.972;2022-10-18T13:29:47;16.73;;;10.40;;
2011;SDS011;1009;51.436;6.972;2022-10-18T13:32:21;16.37;;;8.53;;
2011;SDS011;1009;51.436;6.972;2022-10-18T13:34:50;14.23;;;8.27;;
2011;SDS011;1009;51.436;6.972;2022-10-18T13:37:21;24.90;;;11.23;;
2011;SDS011;1009;51.436;6.972;2022-10-18T13:39:50;17.87;;;11.37;;
2011;SDS011;1009;51.436;6.972;2022-10-18T13:42:29;17.33;;;10.20;;
2011;SDS011;1009;51.436;6.972;2022-10-18T13:47:42;12.90;;;4.10;;
2011;SDS011;1009;51.436;6.972;2022-10-18T13:50:16;15.90;;;4.47;;
2011;SDS011;1009;51.436;6.972;2022-10-18T13:53:01;17.13;;;4.70;;
2011;SDS011;1009;51.436;6.972;2022-10-18T13:58:13;7.47;;;4.17;;
2011;SDS011;1009;51.436;6.972;2022-10-18T14:00:48;12.70;;;5.10;;
2011;SDS011;1009;51.436;6.972;2022-10-18T14:03:27;15.40;;;4.10;;
2011;SDS011;1009;51.436;6.972;2022-10-18T14:06:00;8.87;;;3.50;;
2011;SDS011;1009;51.436;6.972;2022-10-18T14:08:32;9.90;;;3.57;;
2011;SDS011;1009;51.436;6.972;2022-10-18T14:11:02;13.10;;;4.00;;
2011;SDS011;1009;51.436;6.972;2022-10-18T14:13:33;6.50;;;2.60;;
2011;SDS011;1009;51.436;6.972;2022-10-18T14:16:03;10.07;;;2.77;;
2011;SDS011;1009;51.436;6.972;2022-10-18T14:18:33;6.30;;;2.97;;
2011;SDS011;1009;51.436;6.972;2022-10-18T14:21:02;6.10;;;3.47;;
2011;SDS011;1009;51.436;6.972;2022-10-18T14:23:32;8.80;;;3.20;;
2011;SDS011;1009;51.436;6.972;2022-10-18T14:26:05;10.23;;;3.90;;
2011;SDS011;1009;51.436;6.972;2022-10-18T14:28:33;6.87;;;2.87;;
2011;SDS011;1009;51.436;6.972;2022-10-18T14:31:01;6.77;;;3.00;;
2011;SDS011;1009;51.436;6.972;2022-10-18T14:33:31;6.33;;;3.30;;
2011;SDS011;1009;51.436;6.972;2022-10-18T14:36:00;12.13;;;3.13;;
2011;SDS011;1009;51.436;6.972;2022-10-18T14:38:28;5.60;;;3.00;;
2011;SDS011;1009;51.436;6.972;2022-10-18T14:41:03;7.20;;;2.07;;
2011;SDS011;1009;51.436;6.972;2022-10-18T14:43:31;7.67;;;2.80;;
2011;SDS011;1009;51.436;6.972;2022-10-18T14:46:08;10.17;;;3.10;;
2011;SDS011;1009;51.436;6.972;2022-10-18T14:48:35;10.33;;;2.93;;
2011;SDS011;1009;51.436;6.972;2022-10-18T14:51:02;8.40;;;2.60;;
2011;SDS011;1009;51.436;6.972;2022-10-18T14:53:32;7.70;;;2.90;;
2011;SDS011;1009;51.436;6.972;2022-10-18T14:56:00;10.70;;;2.87;;
2011;SDS011;1009;51.436;6.972;2022-10-18T14:58:28;8.70;;;2.27;;
2011;SDS011;1009;51.436;6.972;2022-10-18T15:00:56;5.83;;;2.10;;
2011;SDS011;1009;51.436;6.972;2022-10-18T15:03:26;6.27;;;1.70;;
2011;SDS011;1009;51.436;6.972;2022-10-18T15:05:54;7.67;;;2.00;;
2011;SDS011;1009;51.436;6.972;2022-10-18T15:08:23;7.93;;;2.80;;
2011;SDS011;1009;51.436;6.972;2022-10-18T15:10:52;5.87;;;2.20;;
2011;SDS011;1009;51.436;6.972;2022-10-18T15:13:20;7.97;;;2.37;;
2011;SDS011;1009;51.436;6.972;2022-10-18T15:15:52;6.37;;;1.90;;
2011;SDS011;1009;51.436;6.972;2022-10-18T15:18:20;7.10;;;1.93;;
2011;SDS011;1009;51.436;6.972;2022-10-18T15:23:32;8.83;;;2.50;;
2011;SDS011;1009;51.436;6.972;2022-10-18T15:26:03;9.60;;;2.80;;
2011;SDS011;1009;51.436;6.972;2022-10-18T15:28:32;7.70;;;2.50;;
2011;SDS011;1009;51.436;6.972;2022-10-18T15:31:01;7.63;;;2.60;;
2011;SDS011;1009;51.436;6.972;2022-10-18T15:33:29;5.47;;;2.23;;
2011;SDS011;1009;51.436;6.972;2022-10-18T15:36:06;10.43;;;2.40;;
2011;SDS011;1009;51.436;6.972;2022-10-18T15:38:35;9.00;;;2.63;;
2011;SDS011;1009;51.436;6.972;2022-10-18T15:43:45;9.03;;;2.07;;